METAR AND TAF INFORMATION
METAR FOR LEGR
ADDS - METARS form results

(1548 UTC 17 February 2020)
Data provider http://aviationweather.gov/metar/data/
 
METAR text: LEGR 171530Z 27007KT 230V320 CAVOK 21/08 Q1026
Conditions at: LEGR (GRANADA AIRPORT , ES) observed 1530 UTC 17 February 2020
Temperature: 21.0°C (70°F)
Dewpoint: 8.0°C (46°F) [RH = 43%]
Pressure (altimeter): 30.30 inches Hg (1026.0 mb)
Winds: from the W (270 degrees) at 8 MPH (7 knots; 3.6 m/s)
Visibility: 6 or more miles (10+ km)
Ceiling: ceiling and visibility are OK
Clouds: unknown
Weather: no significant weather observed at this time

METAR text: LEGR 171500Z VRB01KT CAVOK 21/06 Q1026
Conditions at: LEGR (GRANADA AIRPORT , ES) observed 1500 UTC 17 February 2020
Temperature: 21.0°C (70°F)
Dewpoint: 6.0°C (43°F) [RH = 38%]
Pressure (altimeter): 30.30 inches Hg (1026.0 mb)
Winds: variable direction winds at 1 MPH (1 knots; 0.5 m/s)
Visibility: 6 or more miles (10+ km)
Ceiling: ceiling and visibility are OK
Clouds: unknown
Weather: no significant weather observed at this time

Forecast for: LEGR (GRANADA AIRPORT , ES)
Text: TAF LEGR 171400Z 1715/1815 30010KT CAVOK TX22/1715Z TN03/1807Z
Forecast period: 1500 to 1800 UTC 17 February 2020
Forecast type: FROM: standard forecast or significant change
Winds: from the WNW (300 degrees) at 12 MPH (10 knots; 5.1 m/s)
Visibility: 6 or more miles 10+ km)
Ceiling: unknown
Clouds: missing
Weather: no significant weather forecast for this period
Text: BECMG 1718/1720 VRB02KT
Forecast period: 1800 UTC 17 February 2020 to 1500 UTC 18 February 2020
Forecast type: BECOMING: Conditions expected to become as follows by 2000 UTC 17 February 2020
Winds: variable direction winds at 2 MPH (2 knots; 1.0 m/s)
Visibility: 6 or more miles 10+ km)
Ceiling: unknown
Clouds: missing
Weather: no significant weather forecast for this period

 AIRPORT MAP

 RUNWAY INFORMATION
Runway 09 Runway length 9514 ft Runway width 148 ft
Runway elevation 1842 ft Runway displaced threshold 0 ft Runway heading 90
Runway 27 Runway length 9514 ft Runway width 148 ft
Runway elevation 1860 ft Runway displaced threshold 0 ft Runway heading 270

 AIRPORT FREQUENCIES
Type GND Name GND Frequency 121.7 MHZ
Type TWR Name TWR Frequency 118.85 MHZ

 AIRPORT NEAR NAVIGATION AIDS
Type VOR-DME Name Granada Frequency 113400 KHZ





Powered by Virtual Airlines Manager